createdAt,value
2018-04-28T00:01:50.018Z,11.50
2018-04-28T00:04:18.289Z,11.50
2018-04-28T00:06:46.559Z,11.50
2018-04-28T00:09:15.590Z,11.50
2018-04-28T00:11:43.845Z,11.40
2018-04-28T00:14:12.848Z,11.40
2018-04-28T00:16:50.936Z,11.40
2018-04-28T00:19:30.576Z,11.40
2018-04-28T00:22:01.720Z,11.40
2018-04-28T00:24:46.334Z,11.30
2018-04-28T00:31:04.996Z,11.20
2018-04-28T00:33:38.920Z,11.10
2018-04-28T00:36:20.287Z,11.00
2018-04-28T00:38:58.975Z,11.00
2018-04-28T00:41:44.019Z,11.00
2018-04-28T00:44:13.934Z,10.90
2018-04-28T00:49:54.234Z,10.90
2018-04-28T00:52:23.256Z,10.80
2018-04-28T00:55:03.208Z,10.80
2018-04-28T00:57:51.559Z,10.80
2018-04-28T01:00:48.021Z,10.70
2018-04-28T01:06:20.261Z,10.70
2018-04-28T01:08:48.546Z,10.70
2018-04-28T01:11:19.315Z,10.70
2018-04-28T01:13:55.706Z,10.60
2018-04-28T01:16:23.966Z,10.70
2018-04-28T01:19:12.668Z,10.70
2018-04-28T01:21:41.639Z,10.70
2018-04-28T01:27:36.420Z,10.70
2018-04-28T01:33:13.854Z,10.60
2018-04-28T01:35:49.826Z,10.60
2018-04-28T01:38:43.058Z,10.50
2018-04-28T01:41:21.799Z,10.50
2018-04-28T01:43:57.255Z,10.60
2018-04-28T01:46:28.936Z,10.70
2018-04-28T01:48:59.771Z,10.90
2018-04-28T01:51:30.563Z,11.00
2018-04-28T01:54:32.353Z,10.90
2018-04-28T01:57:10.192Z,11.00
2018-04-28T01:59:52.032Z,11.10
2018-04-28T02:02:27.847Z,11.10
2018-04-28T02:04:57.576Z,11.10
2018-04-28T02:07:29.062Z,11.10
2018-04-28T02:09:58.083Z,11.20
2018-04-28T02:12:32.274Z,11.30
2018-04-28T02:15:24.823Z,11.10
2018-04-28T02:17:57.979Z,11.10
2018-04-28T02:20:38.480Z,11.10
2018-04-28T02:23:22.300Z,11.10
2018-04-28T02:25:51.432Z,11.10
2018-04-28T02:28:38.169Z,11.10
2018-04-28T02:34:32.326Z,11.10
2018-04-28T02:40:27.449Z,11.20
2018-04-28T02:42:59.431Z,11.20
2018-04-28T02:45:38.476Z,11.20
2018-04-28T02:48:12.294Z,11.20
2018-04-28T02:50:47.125Z,11.30
2018-04-28T02:53:28.031Z,11.20
2018-04-28T03:02:30.795Z,11.40
2018-04-28T03:08:18.533Z,11.40
2018-04-28T03:11:02.604Z,11.40
2018-04-28T03:13:39.118Z,11.50
2018-04-28T03:16:10.918Z,11.50
2018-04-28T03:18:41.688Z,11.60
2018-04-28T03:21:17.501Z,11.60
2018-04-28T03:27:06.367Z,11.70
2018-04-28T03:29:34.627Z,11.60
2018-04-28T03:32:04.251Z,11.70
2018-04-28T03:34:35.936Z,11.70
2018-04-28T03:37:10.483Z,11.80
2018-04-28T03:39:58.986Z,11.70
2018-04-28T03:45:39.583Z,11.90
2018-04-28T03:48:13.167Z,11.90
2018-04-28T03:53:52.739Z,11.90
2018-04-28T03:56:23.495Z,11.90
2018-04-28T03:59:09.654Z,11.90
2018-04-28T04:04:55.244Z,11.90
2018-04-28T04:07:27.491Z,12.00
2018-04-28T04:09:57.122Z,11.90
2018-04-28T04:12:32.990Z,12.00
2018-04-28T04:15:18.076Z,12.00
2018-04-28T04:21:13.731Z,11.90
2018-04-28T04:27:07.412Z,11.90
2018-04-28T04:32:54.599Z,11.90
2018-04-28T04:35:44.279Z,11.80
2018-04-28T04:38:31.347Z,11.80
2018-04-28T04:44:30.910Z,12.00
2018-04-28T04:50:33.681Z,12.00
2018-04-28T04:57:00.150Z,12.00
2018-04-28T04:59:36.949Z,12.00
2018-04-28T05:05:35.651Z,12.40
2018-04-28T05:11:34.414Z,12.50
2018-04-28T05:14:20.120Z,12.80
2018-04-28T05:20:00.768Z,12.90
2018-04-28T05:26:09.169Z,13.10
2018-04-28T05:38:38.004Z,13.50
2018-04-28T05:44:44.766Z,13.90
2018-04-28T05:47:31.422Z,14.90
2018-04-28T05:53:18.360Z,16.10
2018-04-28T05:56:01.228Z,16.30
2018-04-28T05:59:01.903Z,16.30
2018-04-28T06:01:42.415Z,15.50
2018-04-28T06:04:27.451Z,15.40
2018-04-28T06:07:08.464Z,15.00
2018-04-28T06:10:08.215Z,14.90
2018-04-28T06:12:55.315Z,14.60
2018-04-28T06:15:38.991Z,14.20
2018-04-28T06:18:40.631Z,14.20
2018-04-28T06:21:09.674Z,13.80
2018-04-28T06:23:37.950Z,13.70
2018-04-28T06:26:06.408Z,13.70
2018-04-28T06:28:35.252Z,13.60
2018-04-28T06:31:03.554Z,13.60
2018-04-28T06:33:31.802Z,13.60
2018-04-28T06:36:00.807Z,13.50
2018-04-28T06:38:29.833Z,13.60
2018-04-28T06:40:58.107Z,13.60
2018-04-28T06:43:26.350Z,13.70
2018-04-28T06:45:54.703Z,13.80
2018-04-28T06:48:24.451Z,13.90
2018-04-28T06:50:53.468Z,13.90
2018-04-28T06:53:21.726Z,13.80
2018-04-28T06:55:49.995Z,13.90
2018-04-28T06:58:19.008Z,13.90
2018-04-28T07:00:47.267Z,13.80
2018-04-28T07:03:15.513Z,13.80
2018-04-28T07:05:43.771Z,13.90
2018-04-28T07:08:12.799Z,14.00
2018-04-28T07:10:41.095Z,13.90
2018-04-28T07:13:09.323Z,14.10
2018-04-28T07:15:38.359Z,14.30
2018-04-28T07:18:07.375Z,14.30
2018-04-28T07:20:35.633Z,14.30
2018-04-28T07:23:03.904Z,14.50
2018-04-28T07:25:32.410Z,14.70
2018-04-28T07:28:00.915Z,14.90
2018-04-28T07:30:29.381Z,15.10
2018-04-28T07:32:57.637Z,15.20
2018-04-28T07:35:25.912Z,15.30
2018-04-28T07:37:54.143Z,15.30
2018-04-28T07:40:22.401Z,15.30
2018-04-28T07:42:50.636Z,15.30
2018-04-28T07:45:18.939Z,15.50
2018-04-28T07:47:47.171Z,15.80
2018-04-28T07:50:15.439Z,16.10
2018-04-28T07:52:43.702Z,16.50
2018-04-28T07:55:11.975Z,17.00
2018-04-28T07:57:41.010Z,17.60
2018-04-28T08:00:10.042Z,17.70
2018-04-28T08:02:38.274Z,17.70
2018-04-28T08:05:06.544Z,17.80
2018-04-28T08:07:34.786Z,18.00
2018-04-28T08:10:03.821Z,17.90
2018-04-28T08:12:32.050Z,17.90
2018-04-28T08:15:00.307Z,17.70
2018-04-28T08:17:28.567Z,17.10
2018-04-28T08:19:57.579Z,16.20
2018-04-28T08:22:26.576Z,15.80
2018-04-28T08:24:55.607Z,15.70
2018-04-28T08:27:24.605Z,15.70
2018-04-28T08:29:52.836Z,15.70
2018-04-28T08:32:21.125Z,15.60
2018-04-28T08:34:49.383Z,15.50
2018-04-28T08:37:17.681Z,15.30
2018-04-28T08:39:46.643Z,15.10
2018-04-28T08:42:15.677Z,15.10
2018-04-28T08:44:44.703Z,15.00
2018-04-28T08:47:12.944Z,14.90
2018-04-28T08:49:41.385Z,15.00
2018-04-28T08:52:09.657Z,15.00
2018-04-28T08:54:37.896Z,15.20
2018-04-28T08:57:06.163Z,15.40
2018-04-28T08:59:52.146Z,15.60
2018-04-28T09:02:20.516Z,15.70
2018-04-28T09:04:49.542Z,15.40
2018-04-28T09:07:44.469Z,15.40
2018-04-28T09:10:12.732Z,15.10
2018-04-28T09:12:41.083Z,15.20
2018-04-28T09:15:09.510Z,15.30
2018-04-28T09:17:38.520Z,15.20
2018-04-28T09:20:07.618Z,15.20
2018-04-28T09:22:36.610Z,15.10
2018-04-28T09:25:05.633Z,15.00
2018-04-28T09:27:34.652Z,15.10
2018-04-28T09:30:02.920Z,15.10
2018-04-28T09:32:31.165Z,15.10
2018-04-28T09:34:59.402Z,15.20
2018-04-28T09:37:28.810Z,15.50
2018-04-28T09:39:57.861Z,15.60
2018-04-28T09:42:26.158Z,15.60
2018-04-28T09:44:54.415Z,15.70
2018-04-28T09:49:52.329Z,15.70
2018-04-28T09:52:21.408Z,15.60
2018-04-28T09:54:50.423Z,15.60
2018-04-28T09:57:19.543Z,15.60
2018-04-28T09:59:48.555Z,15.50
2018-04-28T10:02:18.652Z,15.50
2018-04-28T10:04:46.896Z,15.70
2018-04-28T10:07:15.253Z,16.00
2018-04-28T10:09:44.991Z,16.30
2018-04-28T10:12:13.276Z,16.30
2018-04-28T10:14:42.434Z,16.90
2018-04-28T10:17:10.717Z,16.80
2018-04-28T10:19:38.976Z,17.00
2018-04-28T10:22:08.017Z,17.10
2018-04-28T10:24:36.255Z,17.10
2018-04-28T10:27:05.308Z,17.60
2018-04-28T10:29:33.575Z,17.50
2018-04-28T10:32:01.851Z,17.70
2018-04-28T10:34:30.121Z,17.50
2018-04-28T10:36:59.165Z,17.40
2018-04-28T10:39:27.396Z,17.40
2018-04-28T10:41:55.653Z,17.50
2018-04-28T10:44:23.894Z,17.50
2018-04-28T10:46:52.912Z,17.70
2018-04-28T10:49:22.684Z,17.90
2018-04-28T10:51:50.946Z,17.90
2018-04-28T10:54:19.204Z,18.00
2018-04-28T10:56:48.217Z,18.20
2018-04-28T10:59:18.347Z,18.30
2018-04-28T11:01:47.370Z,18.00
2018-04-28T11:04:15.612Z,18.00
2018-04-28T11:06:43.867Z,17.90
2018-04-28T11:09:12.147Z,18.00
2018-04-28T11:11:40.445Z,18.20
2018-04-28T11:14:08.679Z,18.50
2018-04-28T11:16:36.923Z,18.70
2018-04-28T11:19:05.202Z,18.80
2018-04-28T11:21:33.447Z,18.90
2018-04-28T11:24:01.701Z,19.20
2018-04-28T11:26:30.702Z,19.50
2018-04-28T11:28:58.942Z,19.40
2018-04-28T11:31:27.199Z,19.50
2018-04-28T11:33:55.427Z,19.60
2018-04-28T11:36:24.411Z,20.10
2018-04-28T11:38:52.659Z,20.10
2018-04-28T11:41:20.910Z,20.30
2018-04-28T11:43:49.939Z,20.40
2018-04-28T11:46:18.188Z,20.30
2018-04-28T11:48:46.444Z,20.40
2018-04-28T11:51:14.722Z,20.40
2018-04-28T11:53:42.980Z,20.20
2018-04-28T11:56:11.276Z,20.20
2018-04-28T11:58:39.523Z,20.20
2018-04-28T12:01:07.781Z,20.50
2018-04-28T12:03:36.266Z,20.60
2018-04-28T12:06:04.519Z,20.40
2018-04-28T12:08:33.549Z,20.10
2018-04-28T12:11:02.555Z,20.10
2018-04-28T12:13:30.809Z,20.10
2018-04-28T12:15:59.799Z,20.10
2018-04-28T12:18:28.051Z,20.00
2018-04-28T12:20:56.342Z,20.10
2018-04-28T12:23:25.324Z,20.30
2018-04-28T12:25:53.579Z,20.30
2018-04-28T12:28:21.832Z,20.50
2018-04-28T12:30:50.072Z,20.70
2018-04-28T12:33:19.117Z,20.30
2018-04-28T12:35:47.358Z,20.20
2018-04-28T12:38:16.471Z,19.90
2018-04-28T12:40:45.483Z,20.10
2018-04-28T12:43:14.507Z,20.40
2018-04-28T12:45:43.017Z,20.30
2018-04-28T12:48:11.814Z,20.50
2018-04-28T12:50:40.492Z,20.60
2018-04-28T12:53:09.014Z,20.40
2018-04-28T12:55:37.451Z,20.30
2018-04-28T12:58:06.044Z,20.50
2018-04-28T13:00:34.877Z,20.30
2018-04-28T13:03:04.594Z,20.30
2018-04-28T13:05:34.031Z,20.00
2018-04-28T13:08:02.727Z,20.00
2018-04-28T13:10:30.987Z,19.80
2018-04-28T13:13:00.748Z,19.70
2018-04-28T13:15:29.918Z,19.80
2018-04-28T13:17:58.274Z,19.80
2018-04-28T13:20:26.511Z,19.90
2018-04-28T13:22:55.613Z,20.20
2018-04-28T13:25:23.898Z,20.10
2018-04-28T13:30:22.559Z,20.00
2018-04-28T13:32:50.790Z,19.90
2018-04-28T13:35:19.065Z,19.80
2018-04-28T13:37:47.302Z,19.90
2018-04-28T13:40:16.690Z,20.00
2018-04-28T13:42:44.992Z,20.00
2018-04-28T13:45:13.195Z,20.10
2018-04-28T13:47:42.194Z,20.20
2018-04-28T13:50:11.625Z,20.30
2018-04-28T13:52:40.624Z,20.50
2018-04-28T13:55:09.650Z,20.60
2018-04-28T13:57:37.890Z,20.50
2018-04-28T14:00:06.956Z,20.70
2018-04-28T14:02:35.190Z,20.60
2018-04-28T14:05:03.447Z,20.70
2018-04-28T14:07:31.691Z,20.60
2018-04-28T14:10:00.710Z,20.60
2018-04-28T14:12:29.716Z,20.50
2018-04-28T14:14:57.977Z,20.40
2018-04-28T14:17:26.209Z,20.50
2018-04-28T14:19:54.479Z,20.70
2018-04-28T14:22:23.482Z,20.90
2018-04-28T14:24:52.510Z,20.70
2018-04-28T14:27:20.743Z,20.60
2018-04-28T14:29:49.014Z,20.40
2018-04-28T14:32:17.246Z,20.20
2018-04-28T14:34:46.303Z,19.80
2018-04-28T14:37:14.538Z,19.80
2018-04-28T14:39:43.933Z,19.70
2018-04-28T14:42:12.176Z,19.70
2018-04-28T14:44:40.450Z,19.90
2018-04-28T14:47:08.691Z,20.10
2018-04-28T14:49:36.939Z,20.30
2018-04-28T14:52:05.183Z,20.60
2018-04-28T14:54:33.478Z,20.60
2018-04-28T14:57:02.479Z,20.30
2018-04-28T14:59:30.726Z,20.20
2018-04-28T15:01:58.983Z,19.90
2018-04-28T15:04:27.240Z,19.60
2018-04-28T15:06:55.471Z,19.70
2018-04-28T15:09:23.720Z,19.70
2018-04-28T15:11:51.958Z,19.70
2018-04-28T15:14:20.297Z,19.80
2018-04-28T15:16:48.580Z,19.60
2018-04-28T15:19:16.779Z,19.60
2018-04-28T15:21:45.084Z,19.60
2018-04-28T15:24:13.327Z,19.80
2018-04-28T15:26:41.600Z,19.80
2018-04-28T15:29:09.839Z,19.80
2018-04-28T15:31:38.868Z,19.70
2018-04-28T15:34:07.140Z,19.70
2018-04-28T15:36:36.266Z,19.90
2018-04-28T15:39:06.890Z,19.80
2018-04-28T15:41:35.910Z,19.90
2018-04-28T15:44:04.939Z,19.90
2018-04-28T15:46:33.186Z,19.90
2018-04-28T15:49:01.430Z,19.90
2018-04-28T15:51:29.707Z,20.00
2018-04-28T15:53:57.967Z,19.90
2018-04-28T15:56:27.084Z,19.80
2018-04-28T15:58:56.194Z,19.70
2018-04-28T16:01:25.283Z,19.60
2018-04-28T16:03:54.398Z,19.50
2018-04-28T16:06:23.426Z,19.40
2018-04-28T16:08:51.685Z,19.40
2018-04-28T16:11:19.947Z,19.50
2018-04-28T16:13:48.196Z,19.50
2018-04-28T16:16:16.433Z,19.50
2018-04-28T16:18:44.681Z,19.40
2018-04-28T16:21:12.931Z,19.20
2018-04-28T16:23:41.987Z,19.10
2018-04-28T16:26:10.285Z,19.10
2018-04-28T16:28:38.539Z,19.00
2018-04-28T16:31:07.552Z,19.00
2018-04-28T16:33:35.816Z,19.00
2018-04-28T16:36:04.826Z,19.10
2018-04-28T16:38:33.887Z,19.20
2018-04-28T16:41:02.152Z,19.20
2018-04-28T16:43:30.397Z,19.40
2018-04-28T16:45:58.660Z,19.50
2018-04-28T16:48:26.902Z,19.60
2018-04-28T16:50:55.158Z,19.70
2018-04-28T16:53:24.151Z,19.80
2018-04-28T16:55:52.407Z,19.80
2018-04-28T16:58:20.648Z,19.80
2018-04-28T17:00:48.903Z,19.70
2018-04-28T17:03:17.141Z,19.50
2018-04-28T17:05:46.178Z,19.60
2018-04-28T17:08:14.427Z,19.60
2018-04-28T17:10:43.462Z,19.70
2018-04-28T17:13:11.723Z,19.70
2018-04-28T17:15:40.763Z,19.40
2018-04-28T17:18:09.004Z,19.30
2018-04-28T17:20:37.254Z,19.00
2018-04-28T17:23:05.511Z,18.90
2018-04-28T17:25:33.782Z,18.70
2018-04-28T17:28:02.803Z,18.30
2018-04-28T17:30:31.047Z,18.20
2018-04-28T17:32:59.325Z,18.10
2018-04-28T17:35:27.565Z,17.90
2018-04-28T17:37:56.605Z,17.60
2018-04-28T17:40:24.839Z,17.50
2018-04-28T17:42:53.165Z,17.50
2018-04-28T17:45:21.348Z,17.40
2018-04-28T17:47:49.597Z,17.20
2018-04-28T17:50:17.831Z,17.20
2018-04-28T17:52:46.085Z,17.30
2018-04-28T17:55:14.329Z,17.20
2018-04-28T17:57:42.594Z,17.10
2018-04-28T18:00:10.853Z,17.10
2018-04-28T18:02:39.911Z,17.00
2018-04-28T18:05:08.147Z,16.90
2018-04-28T18:07:37.171Z,16.80
2018-04-28T18:10:06.170Z,16.80
2018-04-28T18:12:35.204Z,16.70
2018-04-28T18:15:03.491Z,16.70
2018-04-28T18:17:31.740Z,16.60
2018-04-28T18:19:59.988Z,16.50
2018-04-28T18:22:28.252Z,16.40
2018-04-28T18:24:56.494Z,16.30
2018-04-28T18:27:24.770Z,16.30
2018-04-28T18:29:52.981Z,16.20
2018-04-28T18:32:21.246Z,16.20
2018-04-28T18:34:49.605Z,16.20
2018-04-28T18:37:17.831Z,16.10
2018-04-28T18:39:46.885Z,15.90
2018-04-28T18:42:15.985Z,15.90
2018-04-28T18:44:44.983Z,15.80
2018-04-28T18:47:14.038Z,15.70
2018-04-28T18:49:42.314Z,15.70
2018-04-28T18:52:10.581Z,15.60
2018-04-28T18:54:38.843Z,15.60
2018-04-28T18:57:07.106Z,15.50
2018-04-28T18:59:36.746Z,15.50
2018-04-28T19:02:04.991Z,15.50
2018-04-28T19:04:33.233Z,15.50
2018-04-28T19:07:01.515Z,15.50
2018-04-28T19:09:29.752Z,15.50
2018-04-28T19:11:58.027Z,15.50
2018-04-28T19:14:27.065Z,15.40
2018-04-28T19:16:55.324Z,15.40
2018-04-28T19:21:53.183Z,15.40
2018-04-28T19:24:21.535Z,15.40
2018-04-28T19:26:50.579Z,15.30
2018-04-28T19:29:18.803Z,15.30
2018-04-28T19:31:47.823Z,15.30
2018-04-28T19:34:16.862Z,15.30
2018-04-28T19:36:45.104Z,15.20
2018-04-28T19:39:13.366Z,15.30
2018-04-28T19:41:41.604Z,15.30
2018-04-28T19:44:09.937Z,15.30
2018-04-28T19:46:38.173Z,15.20
2018-04-28T19:49:07.219Z,15.20
2018-04-28T19:51:35.455Z,15.20
2018-04-28T19:54:04.847Z,15.10
2018-04-28T19:56:33.091Z,15.10
2018-04-28T19:59:01.342Z,15.10
2018-04-28T20:01:29.582Z,15.00
2018-04-28T20:03:57.843Z,14.90
2018-04-28T20:06:26.091Z,14.80
2018-04-28T20:08:54.342Z,14.80
2018-04-28T20:11:22.591Z,14.70
2018-04-28T20:13:51.607Z,14.50
2018-04-28T20:16:20.689Z,14.50
2018-04-28T20:18:49.640Z,14.40
2018-04-28T20:21:17.881Z,14.40
2018-04-28T20:24:03.911Z,14.30
2018-04-28T20:26:32.923Z,14.10
2018-04-28T20:29:01.945Z,14.00
2018-04-28T20:31:30.185Z,14.00
2018-04-28T20:33:58.435Z,13.90
2018-04-28T20:36:26.685Z,13.90
2018-04-28T20:41:24.533Z,13.70
2018-04-28T20:43:52.799Z,13.70
2018-04-28T20:46:21.800Z,13.60
2018-04-28T20:48:50.904Z,13.60
2018-04-28T20:51:19.914Z,13.50
2018-04-28T20:53:48.949Z,13.50
2018-04-28T20:56:17.197Z,13.40
2018-04-28T20:58:45.456Z,13.40
2018-04-28T21:01:13.704Z,13.40
2018-04-28T21:03:41.971Z,13.40
2018-04-28T21:06:10.985Z,13.40
2018-04-28T21:08:40.008Z,13.40
2018-04-28T21:11:08.251Z,13.30
2018-04-28T21:13:36.507Z,13.40
2018-04-28T21:16:04.747Z,13.40
2018-04-28T21:18:33.805Z,13.40
2018-04-28T21:21:02.040Z,13.30
2018-04-28T21:23:31.086Z,13.30
2018-04-28T21:25:59.342Z,13.20
2018-04-28T21:28:28.379Z,13.20
2018-04-28T21:30:56.619Z,13.10
2018-04-28T21:33:24.857Z,13.10
2018-04-28T21:35:53.086Z,13.10
2018-04-28T21:38:21.346Z,13.00
2018-04-28T21:40:49.604Z,12.90
2018-04-28T21:43:17.842Z,12.90
2018-04-28T21:45:46.100Z,12.90
2018-04-28T21:48:14.343Z,12.90
2018-04-28T21:50:42.606Z,12.90
2018-04-28T21:53:10.860Z,12.80
2018-04-28T21:55:39.114Z,12.80
2018-04-28T21:58:08.129Z,12.70
2018-04-28T22:00:37.155Z,12.70
2018-04-28T22:03:05.391Z,12.60
2018-04-28T22:05:33.653Z,12.60
2018-04-28T22:08:01.890Z,12.60
2018-04-28T22:10:30.911Z,12.40
2018-04-28T22:12:59.918Z,12.40
2018-04-28T22:15:28.928Z,12.40
2018-04-28T22:20:26.784Z,12.30
2018-04-28T22:22:55.781Z,14.80
2018-04-28T22:25:24.039Z,12.30
2018-04-28T22:27:52.275Z,12.40
2018-04-28T22:30:20.526Z,12.40
2018-04-28T22:32:48.766Z,12.50
2018-04-28T22:35:17.038Z,12.50
2018-04-28T22:37:45.265Z,12.50
2018-04-28T22:40:14.287Z,12.60
2018-04-28T22:42:44.050Z,12.50
2018-04-28T22:45:12.306Z,12.50
2018-04-28T22:47:40.569Z,12.60
2018-04-28T22:50:09.615Z,12.50
2018-04-28T22:52:37.854Z,12.50
2018-04-28T22:55:06.876Z,12.60
2018-04-28T22:57:35.879Z,12.60
2018-04-28T23:00:04.889Z,12.60
2018-04-28T23:02:33.889Z,12.60
2018-04-28T23:05:03.007Z,12.70
2018-04-28T23:07:32.170Z,12.70
2018-04-28T23:10:00.419Z,12.70
2018-04-28T23:12:28.676Z,12.70
2018-04-28T23:14:56.926Z,12.80
2018-04-28T23:17:25.163Z,12.80
2018-04-28T23:19:54.177Z,12.90
2018-04-28T23:22:23.180Z,12.90
2018-04-28T23:24:52.574Z,13.00
2018-04-28T23:27:20.812Z,12.90
2018-04-28T23:29:49.062Z,13.00
2018-04-28T23:32:17.295Z,13.00
2018-04-28T23:34:45.552Z,13.00
2018-04-28T23:37:14.682Z,12.80
2018-04-28T23:39:42.915Z,12.80
2018-04-28T23:42:11.404Z,12.60
2018-04-28T23:44:39.579Z,12.40
2018-04-28T23:47:07.833Z,12.20
2018-04-28T23:49:36.085Z,12.10
2018-04-28T23:52:04.326Z,12.00
2018-04-28T23:54:32.574Z,11.90
2018-04-28T23:57:00.872Z,11.80
2018-04-28T23:59:29.862Z,11.70
